createdAt,value
2019-02-28T00:02:29.966Z,6.00
2019-02-28T00:05:06.146Z,5.90
2019-02-28T00:07:38.266Z,5.90
2019-02-28T00:10:06.598Z,5.90
2019-02-28T00:12:34.137Z,5.80
2019-02-28T00:15:01.760Z,5.80
2019-02-28T00:17:30.350Z,5.70
2019-02-28T00:19:59.817Z,5.70
2019-02-28T00:22:33.023Z,5.60
2019-02-28T00:25:04.366Z,5.60
2019-02-28T00:27:40.237Z,5.60
2019-02-28T00:30:12.095Z,5.50
2019-02-28T00:32:48.263Z,5.40
2019-02-28T00:35:15.910Z,5.40
2019-02-28T00:37:45.680Z,5.50
2019-02-28T00:40:18.938Z,5.50
2019-02-28T00:42:50.733Z,5.60
2019-02-28T00:45:18.631Z,5.60
2019-02-28T00:48:00.286Z,5.60
2019-02-28T00:50:28.375Z,5.60
2019-02-28T00:53:06.497Z,5.50
2019-02-28T00:55:37.546Z,5.50
2019-02-28T00:58:07.732Z,5.40
2019-02-28T01:00:37.164Z,5.30
2019-02-28T01:03:05.029Z,5.30
2019-02-28T01:05:32.672Z,5.30
2019-02-28T01:08:00.278Z,5.30
2019-02-28T01:10:30.450Z,5.30
2019-02-28T01:12:58.455Z,5.20
2019-02-28T01:15:26.039Z,5.20
2019-02-28T01:18:00.419Z,5.20
2019-02-28T01:20:27.090Z,5.20
2019-02-28T01:22:58.541Z,5.20
2019-02-28T01:25:24.116Z,5.10
2019-02-28T01:27:56.834Z,5.10
2019-02-28T01:30:26.436Z,5.00
2019-02-28T01:32:55.182Z,5.00
2019-02-28T01:35:24.088Z,5.00
2019-02-28T01:38:01.046Z,5.00
2019-02-28T01:40:29.524Z,5.00
2019-02-28T01:43:01.332Z,5.00
2019-02-28T01:45:31.578Z,5.00
2019-02-28T01:48:09.323Z,5.00
2019-02-28T01:50:37.661Z,5.00
2019-02-28T01:53:12.848Z,4.90
2019-02-28T01:55:40.732Z,4.90
2019-02-28T01:58:09.664Z,4.90
2019-02-28T02:00:37.249Z,4.80
2019-02-28T02:03:09.536Z,4.80
2019-02-28T02:05:37.784Z,4.90
2019-02-28T02:08:07.287Z,5.00
2019-02-28T02:10:34.774Z,5.10
2019-02-28T02:13:13.012Z,5.20
2019-02-28T02:15:50.949Z,5.30
2019-02-28T02:18:21.594Z,5.40
2019-02-28T02:20:49.140Z,5.50
2019-02-28T02:23:18.843Z,5.50
2019-02-28T02:25:46.614Z,5.50
2019-02-28T02:28:14.214Z,5.50
2019-02-28T02:30:50.504Z,5.50
2019-02-28T02:33:15.682Z,5.40
2019-02-28T02:35:46.277Z,5.40
2019-02-28T02:38:16.150Z,5.30
2019-02-28T02:40:45.736Z,5.20
2019-02-28T02:43:13.877Z,5.20
2019-02-28T02:45:43.576Z,5.10
2019-02-28T02:48:17.457Z,5.10
2019-02-28T02:50:45.057Z,5.10
2019-02-28T02:53:14.331Z,5.10
2019-02-28T02:55:49.208Z,5.00
2019-02-28T02:58:26.907Z,4.90
2019-02-28T03:00:51.385Z,4.80
2019-02-28T03:03:26.041Z,4.70
2019-02-28T03:05:55.340Z,4.60
2019-02-28T03:08:26.159Z,4.60
2019-02-28T03:10:55.534Z,4.70
2019-02-28T03:13:23.145Z,4.90
2019-02-28T03:15:50.792Z,5.00
2019-02-28T03:18:22.077Z,4.90
2019-02-28T03:20:52.907Z,4.90
2019-02-28T03:23:27.419Z,5.00
2019-02-28T03:26:05.733Z,5.10
2019-02-28T03:28:33.386Z,5.10
2019-02-28T03:31:11.921Z,5.20
2019-02-28T03:33:30.771Z,5.30
2019-02-28T03:35:58.990Z,5.30
2019-02-28T03:38:26.732Z,5.40
2019-02-28T03:40:54.345Z,5.40
2019-02-28T03:43:25.107Z,5.40
2019-02-28T03:45:55.129Z,5.40
2019-02-28T03:48:26.789Z,5.40
2019-02-28T03:51:00.845Z,5.30
2019-02-28T03:53:28.404Z,5.20
2019-02-28T03:55:58.729Z,5.20
2019-02-28T03:58:27.928Z,5.10
2019-02-28T04:00:59.133Z,5.10
2019-02-28T04:03:33.416Z,5.10
2019-02-28T04:06:03.000Z,5.00
2019-02-28T04:08:36.845Z,5.00
2019-02-28T04:11:08.945Z,4.90
2019-02-28T04:13:36.616Z,4.90
2019-02-28T04:16:09.178Z,4.70
2019-02-28T04:18:46.100Z,4.60
2019-02-28T04:21:18.487Z,4.60
2019-02-28T04:23:46.129Z,4.60
2019-02-28T04:26:13.784Z,4.50
2019-02-28T04:28:42.474Z,4.50
2019-02-28T04:31:18.921Z,4.40
2019-02-28T04:33:42.506Z,4.20
2019-02-28T04:36:12.357Z,4.20
2019-02-28T04:38:40.870Z,4.20
2019-02-28T04:41:11.323Z,4.20
2019-02-28T04:43:45.033Z,4.30
2019-02-28T04:46:16.295Z,4.30
2019-02-28T04:48:49.186Z,4.30
2019-02-28T04:51:20.173Z,4.30
2019-02-28T04:53:52.686Z,4.30
2019-02-28T04:56:17.235Z,4.20
2019-02-28T04:58:48.845Z,4.10
2019-02-28T05:01:20.106Z,4.10
2019-02-28T05:03:52.699Z,4.00
2019-02-28T05:06:28.232Z,4.10
2019-02-28T05:08:58.856Z,4.20
2019-02-28T05:11:33.863Z,4.30
2019-02-28T05:14:04.927Z,4.40
2019-02-28T05:16:33.064Z,4.40
2019-02-28T05:19:02.508Z,4.40
2019-02-28T05:21:31.992Z,4.50
2019-02-28T05:24:00.876Z,4.50
2019-02-28T05:26:31.180Z,4.60
2019-02-28T05:29:00.540Z,4.50
2019-02-28T05:31:30.372Z,4.50
2019-02-28T05:34:03.167Z,4.50
2019-02-28T05:36:30.740Z,4.50
2019-02-28T05:38:58.372Z,4.40
2019-02-28T05:41:26.103Z,4.40
2019-02-28T05:43:54.052Z,4.40
2019-02-28T05:46:23.655Z,4.40
2019-02-28T05:48:52.297Z,4.40
2019-02-28T05:51:20.287Z,4.50
2019-02-28T05:53:50.311Z,4.60
2019-02-28T05:56:37.072Z,4.60
2019-02-28T05:59:07.572Z,4.60
2019-02-28T06:01:35.209Z,4.60
2019-02-28T06:04:04.666Z,4.60
2019-02-28T06:06:34.630Z,4.60
2019-02-28T06:09:04.130Z,4.60
2019-02-28T06:11:37.065Z,4.50
2019-02-28T06:14:08.125Z,4.50
2019-02-28T06:16:39.236Z,4.50
2019-02-28T06:19:08.271Z,4.60
2019-02-28T06:21:36.298Z,4.60
2019-02-28T06:24:03.988Z,4.50
2019-02-28T06:26:38.335Z,4.40
2019-02-28T06:29:13.530Z,4.40
2019-02-28T06:31:45.394Z,4.30
2019-02-28T06:34:14.310Z,4.30
2019-02-28T06:36:43.676Z,4.30
2019-02-28T06:39:11.391Z,4.30
2019-02-28T06:41:41.785Z,4.40
2019-02-28T06:44:10.647Z,4.50
2019-02-28T06:46:43.431Z,4.60
2019-02-28T06:49:10.921Z,4.70
2019-02-28T06:51:42.546Z,4.80
2019-02-28T06:54:11.377Z,4.90
2019-02-28T06:56:39.325Z,5.10
2019-02-28T06:59:12.947Z,5.20
2019-02-28T07:01:46.054Z,5.30
2019-02-28T07:04:18.458Z,5.40
2019-02-28T07:06:55.265Z,5.60
2019-02-28T07:09:26.159Z,5.80
2019-02-28T07:11:54.719Z,5.90
2019-02-28T07:14:23.379Z,6.10
2019-02-28T07:16:51.070Z,6.30
2019-02-28T07:19:18.807Z,6.60
2019-02-28T07:21:55.554Z,6.80
2019-02-28T07:24:25.513Z,7.00
2019-02-28T07:26:59.316Z,7.20
2019-02-28T07:29:29.057Z,7.30
2019-02-28T07:32:01.303Z,7.50
2019-02-28T07:34:28.435Z,7.70
2019-02-28T07:36:58.874Z,7.70
2019-02-28T07:39:31.774Z,7.80
2019-02-28T07:42:02.249Z,7.80
2019-02-28T07:44:28.809Z,8.00
2019-02-28T07:47:04.246Z,8.00
2019-02-28T07:49:35.890Z,8.10
2019-02-28T07:52:07.515Z,8.20
2019-02-28T07:54:35.076Z,8.40
2019-02-28T07:57:03.235Z,8.40
2019-02-28T07:59:32.901Z,8.50
2019-02-28T08:02:03.267Z,8.50
2019-02-28T08:04:31.505Z,8.60
2019-02-28T08:07:00.185Z,8.60
2019-02-28T08:09:29.797Z,8.60
2019-02-28T08:12:05.903Z,8.70
2019-02-28T08:14:33.482Z,8.80
2019-02-28T08:17:01.095Z,8.80
2019-02-28T08:19:28.673Z,8.90
2019-02-28T08:21:56.289Z,8.90
2019-02-28T08:24:26.720Z,9.00
2019-02-28T08:26:54.357Z,9.00
2019-02-28T08:29:22.021Z,9.00
2019-02-28T08:31:53.068Z,9.10
2019-02-28T08:34:23.764Z,9.10
2019-02-28T08:36:50.046Z,9.20
2019-02-28T08:39:28.179Z,9.20
2019-02-28T08:42:02.964Z,9.30
2019-02-28T08:44:26.079Z,9.30
2019-02-28T08:46:53.832Z,9.30
2019-02-28T08:49:21.434Z,9.30
2019-02-28T08:51:51.697Z,9.40
2019-02-28T08:54:19.278Z,9.40
2019-02-28T08:56:51.049Z,9.40
2019-02-28T08:59:21.733Z,9.50
2019-02-28T09:01:50.602Z,9.50
2019-02-28T09:04:18.212Z,9.50
2019-02-28T09:06:48.366Z,9.60
2019-02-28T09:09:15.882Z,9.60
2019-02-28T09:11:44.610Z,9.60
2019-02-28T09:14:14.709Z,9.60
2019-02-28T09:16:44.628Z,9.60
2019-02-28T09:19:19.716Z,9.70
2019-02-28T09:21:52.881Z,9.80
2019-02-28T09:24:21.701Z,9.90
2019-02-28T09:26:58.263Z,10.10
2019-02-28T09:29:29.195Z,10.20
2019-02-28T09:31:58.196Z,10.30
2019-02-28T09:34:26.262Z,10.40
2019-02-28T09:36:56.638Z,10.40
2019-02-28T09:39:23.800Z,10.40
2019-02-28T09:41:51.948Z,10.30
2019-02-28T09:44:31.514Z,10.40
2019-02-28T09:47:00.969Z,10.50
2019-02-28T09:49:32.333Z,10.50
2019-02-28T09:52:03.155Z,10.50
2019-02-28T09:54:30.168Z,10.60
2019-02-28T09:57:01.106Z,10.50
2019-02-28T09:59:37.380Z,10.40
2019-02-28T10:02:07.927Z,10.10
2019-02-28T10:04:33.170Z,10.10
2019-02-28T10:07:05.357Z,10.00
2019-02-28T10:09:32.945Z,9.90
2019-02-28T10:12:00.536Z,9.70
2019-02-28T10:14:30.970Z,9.50
2019-02-28T10:16:59.722Z,9.50
2019-02-28T10:19:29.044Z,9.50
2019-02-28T10:21:56.598Z,9.40
2019-02-28T10:24:24.719Z,9.40
2019-02-28T10:26:52.413Z,9.40
2019-02-28T10:29:20.013Z,9.50
2019-02-28T10:31:47.583Z,9.50
2019-02-28T10:34:15.237Z,9.50
2019-02-28T10:36:47.382Z,9.50
2019-02-28T10:39:13.131Z,9.50
2019-02-28T10:41:40.661Z,9.70
2019-02-28T10:44:08.197Z,9.70
2019-02-28T10:46:36.160Z,9.80
2019-02-28T10:49:03.803Z,10.00
2019-02-28T10:51:31.368Z,10.20
2019-02-28T10:53:58.956Z,10.30
2019-02-28T10:56:31.739Z,10.50
2019-02-28T10:58:55.821Z,10.60
2019-02-28T11:01:24.085Z,10.90
2019-02-28T11:03:51.649Z,11.00
2019-02-28T11:06:19.229Z,11.10
2019-02-28T11:08:49.867Z,11.20
2019-02-28T11:11:17.418Z,11.30
2019-02-28T11:13:45.016Z,11.40
2019-02-28T11:16:12.653Z,11.40
2019-02-28T11:18:41.957Z,11.30
2019-02-28T11:21:09.675Z,11.40
2019-02-28T11:23:37.374Z,11.50
2019-02-28T11:26:06.497Z,11.60
2019-02-28T11:28:34.515Z,11.60
2019-02-28T11:31:02.737Z,11.60
2019-02-28T11:33:30.233Z,11.70
2019-02-28T11:35:59.210Z,11.60
2019-02-28T11:38:26.981Z,11.60
2019-02-28T11:40:57.276Z,11.60
2019-02-28T11:43:23.887Z,11.80
2019-02-28T11:45:56.440Z,12.00
2019-02-28T11:48:30.253Z,12.30
2019-02-28T11:50:57.909Z,12.40
2019-02-28T11:53:25.416Z,12.60
2019-02-28T11:55:53.630Z,12.80
2019-02-28T11:58:21.899Z,12.70
2019-02-28T12:00:49.527Z,12.80
2019-02-28T12:03:17.249Z,12.90
2019-02-28T12:05:50.171Z,12.90
2019-02-28T12:08:16.205Z,12.90
2019-02-28T12:10:43.764Z,12.80
2019-02-28T12:13:11.287Z,12.80
2019-02-28T12:15:39.164Z,12.60
2019-02-28T12:18:06.927Z,12.60
2019-02-28T12:20:34.459Z,12.60
2019-02-28T12:23:02.304Z,12.60
2019-02-28T12:25:29.873Z,12.70
2019-02-28T12:27:59.367Z,12.80
2019-02-28T12:30:26.957Z,12.90
2019-02-28T12:32:54.983Z,13.00
2019-02-28T12:35:22.601Z,13.10
2019-02-28T12:37:50.260Z,13.00
2019-02-28T12:40:20.130Z,13.00
2019-02-28T12:42:47.986Z,13.00
2019-02-28T12:45:17.923Z,12.90
2019-02-28T12:47:45.939Z,12.80
2019-02-28T12:50:13.543Z,12.80
2019-02-28T12:52:41.249Z,12.80
2019-02-28T12:55:12.347Z,12.80
2019-02-28T12:57:40.038Z,12.70
2019-02-28T13:00:11.845Z,12.60
2019-02-28T13:02:39.751Z,12.60
2019-02-28T13:05:14.603Z,12.40
2019-02-28T13:07:39.866Z,12.40
2019-02-28T13:10:08.765Z,12.30
2019-02-28T13:12:36.330Z,12.30
2019-02-28T13:15:05.441Z,12.40
2019-02-28T13:17:33.032Z,12.40
2019-02-28T13:20:00.632Z,12.70
2019-02-28T13:22:28.115Z,13.10
2019-02-28T13:24:55.661Z,13.30
2019-02-28T13:27:26.449Z,13.20
2019-02-28T13:29:55.255Z,13.10
2019-02-28T13:32:22.849Z,13.10
2019-02-28T13:34:50.416Z,13.00
2019-02-28T13:37:19.086Z,13.00
2019-02-28T13:39:46.618Z,13.00
2019-02-28T13:42:14.373Z,13.00
2019-02-28T13:44:44.674Z,13.00
2019-02-28T13:47:14.351Z,13.10
2019-02-28T13:49:41.908Z,13.10
2019-02-28T13:52:09.441Z,13.10
2019-02-28T13:54:38.198Z,13.00
2019-02-28T13:57:09.766Z,12.80
2019-02-28T13:59:36.373Z,12.80
2019-02-28T14:02:06.265Z,12.70
2019-02-28T14:04:33.832Z,12.70
2019-02-28T14:07:01.461Z,12.70
2019-02-28T14:09:29.162Z,12.70
2019-02-28T14:11:58.221Z,12.70
2019-02-28T14:14:25.829Z,12.70
2019-02-28T14:16:53.405Z,12.60
2019-02-28T14:19:21.486Z,12.60
2019-02-28T14:21:49.169Z,12.60
2019-02-28T14:24:16.731Z,12.50
2019-02-28T14:26:49.480Z,12.50
2019-02-28T14:29:17.058Z,12.60
2019-02-28T14:31:44.598Z,12.60
2019-02-28T14:34:12.198Z,12.60
2019-02-28T14:36:41.814Z,12.60
2019-02-28T14:39:11.161Z,12.70
2019-02-28T14:41:38.779Z,12.80
2019-02-28T14:44:06.319Z,12.90
2019-02-28T14:46:34.790Z,12.90
2019-02-28T14:49:02.490Z,12.90
2019-02-28T14:51:30.206Z,12.80
2019-02-28T14:53:57.822Z,12.80
2019-02-28T14:56:25.611Z,12.80
2019-02-28T14:59:02.234Z,12.90
2019-02-28T15:01:29.928Z,12.90
2019-02-28T15:03:57.498Z,12.90
2019-02-28T15:06:26.318Z,12.90
2019-02-28T15:08:54.691Z,13.00
2019-02-28T15:11:22.283Z,13.20
2019-02-28T15:16:38.865Z,13.20
2019-02-28T15:19:06.509Z,13.00
2019-02-28T15:21:34.129Z,12.80
2019-02-28T15:24:01.750Z,12.80
2019-02-28T15:26:29.786Z,12.80
2019-02-28T15:28:58.672Z,12.80
2019-02-28T15:31:26.293Z,12.70
2019-02-28T15:33:55.679Z,12.70
2019-02-28T15:36:24.317Z,12.70
2019-02-28T15:38:53.816Z,12.70
2019-02-28T15:41:21.652Z,12.60
2019-02-28T15:43:50.393Z,12.60
2019-02-28T15:46:19.203Z,12.50
2019-02-28T15:48:46.902Z,12.50
2019-02-28T15:51:15.772Z,12.50
2019-02-28T15:53:43.475Z,12.50
2019-02-28T15:56:13.606Z,12.50
2019-02-28T15:58:56.076Z,12.40
2019-02-28T16:01:23.893Z,12.40
2019-02-28T16:03:58.619Z,12.40
2019-02-28T16:09:27.830Z,12.30
2019-02-28T16:11:55.936Z,12.30
2019-02-28T16:14:24.307Z,12.30
2019-02-28T16:17:03.377Z,12.30
2019-02-28T16:19:29.906Z,12.30
2019-02-28T16:21:57.648Z,12.30
2019-02-28T16:24:25.403Z,12.20
2019-02-28T16:26:53.543Z,12.20
2019-02-28T16:29:22.546Z,12.10
2019-02-28T16:31:50.245Z,12.20
2019-02-28T16:34:22.688Z,12.10
2019-02-28T16:36:50.237Z,12.10
2019-02-28T16:39:18.301Z,12.00
2019-02-28T16:41:49.043Z,12.00
2019-02-28T16:44:19.981Z,12.00
2019-02-28T16:46:54.719Z,12.00
2019-02-28T16:49:22.720Z,11.90
2019-02-28T16:51:50.415Z,11.90
2019-02-28T16:54:19.427Z,11.90
2019-02-28T16:56:48.093Z,11.80
2019-02-28T16:59:18.907Z,11.80
2019-02-28T17:01:46.658Z,11.70
2019-02-28T17:04:17.099Z,11.60
2019-02-28T17:06:55.537Z,11.50
2019-02-28T17:09:33.383Z,11.30
2019-02-28T17:12:23.615Z,11.20
2019-02-28T17:14:50.667Z,11.10
2019-02-28T17:17:29.015Z,10.90
2019-02-28T17:19:56.679Z,10.90
2019-02-28T17:22:26.916Z,10.90
2019-02-28T17:24:55.466Z,10.80
2019-02-28T17:27:44.813Z,10.80
2019-02-28T17:30:57.379Z,10.70
2019-02-28T17:33:25.211Z,10.70
2019-02-28T17:35:52.916Z,10.70
2019-02-28T17:38:27.775Z,10.60
2019-02-28T17:40:55.560Z,10.60
2019-02-28T17:43:24.414Z,10.60
2019-02-28T17:45:52.477Z,10.60
2019-02-28T17:49:17.271Z,10.60
2019-02-28T17:51:55.538Z,10.60
2019-02-28T17:55:02.096Z,10.60
2019-02-28T17:57:55.511Z,10.60
2019-02-28T18:01:16.818Z,10.60
2019-02-28T18:04:21.027Z,10.70
2019-02-28T18:07:26.394Z,10.60
2019-02-28T18:10:15.406Z,10.70
2019-02-28T18:13:16.155Z,10.70
2019-02-28T18:16:27.428Z,10.70
2019-02-28T18:19:33.298Z,10.70
2019-02-28T18:22:28.968Z,10.70
2019-02-28T18:25:53.403Z,10.70
2019-02-28T18:29:01.955Z,10.70
2019-02-28T18:31:29.738Z,10.60
2019-02-28T18:34:00.371Z,10.60
2019-02-28T18:36:46.611Z,10.50
2019-02-28T18:39:44.623Z,10.50
2019-02-28T18:42:27.028Z,10.50
2019-02-28T18:47:59.146Z,10.50
2019-02-28T18:50:26.790Z,10.50
2019-02-28T18:52:56.535Z,10.40
2019-02-28T18:55:24.099Z,10.40
2019-02-28T18:57:54.498Z,10.40
2019-02-28T19:00:22.494Z,10.40
2019-02-28T19:02:52.388Z,10.40
2019-02-28T19:05:23.074Z,10.40
2019-02-28T19:07:53.686Z,10.40
2019-02-28T19:10:27.647Z,10.40
2019-02-28T19:12:55.295Z,10.40
2019-02-28T19:15:22.942Z,10.40
2019-02-28T19:17:50.611Z,10.40
2019-02-28T19:20:18.265Z,10.40
2019-02-28T19:22:45.835Z,10.50
2019-02-28T19:25:13.400Z,10.50
2019-02-28T19:27:43.067Z,10.50
2019-02-28T19:30:11.799Z,10.50
2019-02-28T19:32:39.384Z,10.50
2019-02-28T19:35:07.209Z,10.60
2019-02-28T19:37:34.815Z,10.60
2019-02-28T19:40:03.868Z,10.60
2019-02-28T19:42:31.715Z,10.60
2019-02-28T19:44:59.528Z,10.50
2019-02-28T19:47:27.365Z,10.50
2019-02-28T19:49:55.117Z,10.50
2019-02-28T19:52:24.904Z,10.50
2019-02-28T19:54:52.610Z,10.40
2019-02-28T19:57:20.315Z,10.40
2019-02-28T19:59:47.899Z,10.40
2019-02-28T20:02:15.542Z,10.40
2019-02-28T20:04:43.159Z,10.30
2019-02-28T20:07:10.776Z,10.30
2019-02-28T20:09:38.536Z,10.30
2019-02-28T20:12:06.279Z,10.20
2019-02-28T20:14:33.842Z,10.20
2019-02-28T20:17:15.343Z,10.20
2019-02-28T20:19:42.965Z,10.20
2019-02-28T20:22:11.768Z,10.20
2019-02-28T20:24:39.337Z,10.20
2019-02-28T20:27:07.031Z,10.20
2019-02-28T20:29:34.886Z,10.20
2019-02-28T20:32:02.476Z,10.30
2019-02-28T20:34:30.154Z,10.30
2019-02-28T20:36:58.128Z,10.30
2019-02-28T20:39:26.042Z,10.30
2019-02-28T20:41:53.605Z,10.30
2019-02-28T20:44:21.205Z,10.20
2019-02-28T20:46:48.742Z,10.20
2019-02-28T20:49:16.335Z,10.20
2019-02-28T20:51:43.903Z,10.20
2019-02-28T20:54:11.482Z,10.20
2019-02-28T20:56:41.353Z,10.20
2019-02-28T20:59:10.865Z,10.20
2019-02-28T21:01:40.477Z,10.20
2019-02-28T21:04:08.046Z,10.20
2019-02-28T21:06:35.635Z,10.20
2019-02-28T21:09:05.691Z,10.20
2019-02-28T21:11:33.443Z,10.20
2019-02-28T21:14:01.013Z,10.20
2019-02-28T21:16:31.080Z,10.20
2019-02-28T21:18:58.679Z,10.20
2019-02-28T21:21:26.244Z,10.20
2019-02-28T21:23:53.835Z,10.20
2019-02-28T21:26:21.391Z,10.20
2019-02-28T21:28:50.808Z,10.30
2019-02-28T21:31:22.032Z,10.30
2019-02-28T21:33:49.762Z,10.30
2019-02-28T21:36:17.344Z,10.30
2019-02-28T21:38:44.906Z,10.20
2019-02-28T21:41:12.482Z,10.20
2019-02-28T21:43:40.054Z,10.20
2019-02-28T21:46:07.714Z,10.20
2019-02-28T21:48:35.432Z,10.20
2019-02-28T21:51:02.973Z,10.20
2019-02-28T21:53:30.516Z,10.20
2019-02-28T21:55:58.070Z,10.20
2019-02-28T21:58:26.788Z,10.20
2019-02-28T22:00:54.560Z,10.20
2019-02-28T22:03:22.171Z,10.20
2019-02-28T22:05:51.854Z,10.20
2019-02-28T22:08:20.290Z,10.20
2019-02-28T22:10:47.871Z,10.20
2019-02-28T22:13:15.438Z,10.20
2019-02-28T22:15:43.071Z,10.20
2019-02-28T22:18:10.588Z,10.20
2019-02-28T22:20:41.204Z,10.30
2019-02-28T22:23:09.978Z,10.30
2019-02-28T22:25:37.558Z,10.30
2019-02-28T22:28:05.081Z,10.20
2019-02-28T22:31:01.393Z,10.20
2019-02-28T22:34:00.166Z,10.20
2019-02-28T22:36:31.352Z,10.20
2019-02-28T22:38:58.902Z,10.20
2019-02-28T22:41:26.512Z,10.20
2019-02-28T22:43:54.106Z,10.10
2019-02-28T22:46:21.724Z,10.10
2019-02-28T22:48:49.293Z,10.10
2019-02-28T22:51:16.869Z,10.10
2019-02-28T22:53:44.436Z,10.00
2019-02-28T22:56:14.218Z,10.00
2019-02-28T22:58:42.808Z,10.00
2019-02-28T23:01:14.720Z,10.00
2019-02-28T23:03:42.897Z,10.00
2019-02-28T23:06:10.492Z,10.00
2019-02-28T23:08:39.015Z,9.90
2019-02-28T23:11:06.722Z,9.90
2019-02-28T23:13:34.783Z,9.90
2019-02-28T23:16:02.383Z,9.80
2019-02-28T23:18:29.913Z,9.80
2019-02-28T23:20:57.497Z,9.80
2019-02-28T23:23:25.062Z,9.80
2019-02-28T23:25:52.664Z,9.80
2019-02-28T23:28:25.021Z,9.80
2019-02-28T23:31:37.417Z,9.80
2019-02-28T23:34:13.793Z,9.80
2019-02-28T23:36:41.370Z,9.80
2019-02-28T23:39:09.164Z,9.80
2019-02-28T23:41:36.771Z,9.80
2019-02-28T23:44:04.357Z,9.80
2019-02-28T23:46:31.961Z,9.80
2019-02-28T23:48:59.589Z,9.80
2019-02-28T23:51:27.219Z,9.80
2019-02-28T23:53:54.850Z,9.80
2019-02-28T23:56:22.429Z,9.80
2019-02-28T23:58:50.927Z,9.80
